Rorichmoor — V2BV7 — position and weather

sailwx.info

Track history (hours):
 
Tides and Currents Weather Stations Pressure Air Temp Water Temp Dewpoint Dewpoint Depression Visibility Wind Speed Wind Dir Waves Ship Positions

Rorichmoor

Last reported at 2017-Mar-24 18:11 UTC. Time now 2017-Mar-29 22:55 UTC.
Position N 37°38' E 023°42'.

Length 80 m; draft 3.7 m.

Type: Cargo ship. MMSI: 304938000.

Date/timePositionNaut miles runAvg speedWind from/ knotsBaromVisibWave heightAir tempDewpointWater temp
2017-Mar-24 18:11N 37°38' E 023°42'610.0
2017-Mar-24 17:34N 37°38' E 023°35'1110.2
2017-Mar-24 16:31N 37°40' E 023°21'8 8.4
2017-Mar-24 15:33N 37°44' E 023°13'10 9.7
2017-Mar-24 14:34N 37°53' E 023°09'6 0.3
2017-Mar-23 19:06N 37°55' E 023°02'415 8.7
2017-Mar-21 19:33N 36°44' E 014°28'9 9.1
2017-Mar-21 18:34N 36°46' E 014°17'9 8.8
2017-Mar-21 17:33N 36°48' E 014°06'8 8.4
2017-Mar-21 16:33N 36°49' E 013°55'  
2017-Mar-17 10:10N 35°59' W 005°12'3 5.6
2017-Mar-17 09:33N 35°59' W 005°16'7 6.9
2017-Mar-17 08:33N 35°58' W 005°24'  
Track history (hours):
 
Tides and Currents Weather Stations Pressure Air Temp Water Temp Dewpoint Dewpoint Depression Visibility Wind Speed Wind Dir Waves Ship Positions

Rorichmoor

Last reported at 2017-Mar-24 18:11 UTC. Time now 2017-Mar-29 22:55 UTC.
Position N 37°38' E 023°42'.

Length 80 m; draft 3.7 m.

Type: Cargo ship. MMSI: 304938000.

Date/timePositionNaut miles runAvg speedWind from/ knotsBaromVisibWave heightAir tempDewpointWater temp
2017-Mar-24 18:11N 37°38' E 023°42'610.0
2017-Mar-24 17:34N 37°38' E 023°35'1110.2
2017-Mar-24 16:31N 37°40' E 023°21'8 8.4
2017-Mar-24 15:33N 37°44' E 023°13'10 9.7
2017-Mar-24 14:34N 37°53' E 023°09'6 0.3
2017-Mar-23 19:06N 37°55' E 023°02'415 8.7
2017-Mar-21 19:33N 36°44' E 014°28'9 9.1
2017-Mar-21 18:34N 36°46' E 014°17'9 8.8
2017-Mar-21 17:33N 36°48' E 014°06'8 8.4
2017-Mar-21 16:33N 36°49' E 013°55'  
2017-Mar-17 10:10N 35°59' W 005°12'3 5.6
2017-Mar-17 09:33N 35°59' W 005°16'7 6.9
2017-Mar-17 08:33N 35°58' W 005°24'  

Dump ship's entire track history